Time;durP1;ratioP1;P1;durP2;ratioP2;P2;SDS_P1;SDS_P2;PMS_P1;PMS_P2;Temp;Humidity;BMP_temperature;BMP_pressure;BME280_temperature;BME280_humidity;BME280_pressure;Samples;Min_cycle;Max_cycle;Signal;HPM_P1;HPM_P2
2021/05/15 00:00:31;;;;;;;1.20;0.52;;;;;;;20.45;32.87;100760.06;143730;564;46020;-81
2021/05/15 00:02:59;;;;;;;2.65;0.60;;;;;;;20.49;32.85;100760.69;143727;645;48018;-81
2021/05/15 00:05:27;;;;;;;1.62;0.65;;;;;;;20.52;32.57;100763.16;143732;606;47008;-80
2021/05/15 00:07:54;;;;;;;2.25;0.68;;;;;;;20.54;32.70;100761.22;143730;595;46008;-82
2021/05/15 00:10:22;;;;;;;3.37;0.80;;;;;;;20.55;32.55;100761.09;143731;570;46020;-81
2021/05/15 00:12:50;;;;;;;1.83;0.60;;;;;;;20.57;32.39;100771.66;143728;569;47040;-82
2021/05/15 00:15:18;;;;;;;4.28;0.90;;;;;;;20.57;32.48;100761.00;143732;602;46008;-84
2021/05/15 00:17:45;;;;;;;3.72;0.80;;;;;;;20.54;32.34;100762.06;143731;596;46008;-85
2021/05/15 00:20:15;;;;;;;3.08;0.70;;;;;;;20.48;32.50;100756.31;143730;709;46018;-83
2021/05/15 00:22:46;;;;;;;2.15;0.60;;;;;;;20.44;32.67;100755.69;143728;581;46016;-84
2021/05/15 00:25:16;;;;;;;3.28;0.70;;;;;;;20.40;32.76;100752.34;143727;571;46021;-80
2021/05/15 00:27:44;;;;;;;3.28;0.90;;;;;;;20.34;32.91;100752.78;143731;571;46905;-79
2021/05/15 00:30:14;;;;;;;3.15;0.73;;;;;;;20.32;32.97;100759.19;143731;699;46017;-78
2021/05/15 00:32:42;;;;;;;4.12;0.80;;;;;;;20.25;33.26;100746.25;143728;564;46906;-79
2021/05/15 00:35:10;;;;;;;2.85;0.70;;;;;;;20.18;33.15;100744.12;143731;576;46012;-81
2021/05/15 00:37:38;;;;;;;3.60;0.80;;;;;;;20.18;33.23;100755.63;143727;584;46025;-81
2021/05/15 00:40:10;;;;;;;2.22;0.70;;;;;;;20.11;33.33;100747.19;143734;654;46008;-80
2021/05/15 00:42:38;;;;;;;3.35;0.68;;;;;;;20.05;33.60;100744.97;143729;586;47905;-87
2021/05/15 00:45:09;;;;;;;1.75;0.60;;;;;;;20.01;33.38;100748.78;143731;643;46010;-88
2021/05/15 00:47:37;;;;;;;2.60;0.80;;;;;;;19.93;33.64;100735.97;143726;586;46018;-88
2021/05/15 00:50:07;;;;;;;2.55;0.80;;;;;;;19.93;33.81;100730.66;143732;566;47008;-89
2021/05/15 00:52:36;;;;;;;3.28;1.15;;;;;;;19.90;33.80;100728.19;143727;656;47018;-88
2021/05/15 00:55:15;;;;;;;2.87;0.80;;;;;;;19.81;33.14;100714.66;143731;588;47008;-87
2021/05/15 00:57:42;;;;;;;2.85;0.70;;;;;;;19.92;33.31;100720.94;143733;619;46016;-87
2021/05/15 01:00:14;;;;;;;2.12;0.60;;;;;;;19.90;33.05;100711.34;143730;579;47006;-88
2021/05/15 01:02:42;;;;;;;3.00;0.73;;;;;;;20.00;32.97;100715.09;143729;642;47021;-86
2021/05/15 01:05:11;;;;;;;2.12;0.70;;;;;;;20.04;33.10;100711.28;143733;604;46008;-82
2021/05/15 01:07:40;;;;;;;4.18;0.50;;;;;;;20.06;32.87;100704.00;143729;696;46008;-84
2021/05/15 01:10:08;;;;;;;2.80;0.62;;;;;;;20.10;33.03;100704.66;143724;601;46021;-88
2021/05/15 01:12:53;;;;;;;1.55;0.60;;;;;;;20.17;32.21;100713.09;143729;635;46016;-83
2021/05/15 01:15:22;;;;;;;4.07;1.27;;;;;;;20.25;32.93;100698.28;143732;575;45020;-84
2021/05/15 01:17:59;;;;;;;3.62;0.70;;;;;;;20.33;32.64;100702.25;143730;569;46008;-85
2021/05/15 01:20:31;;;;;;;2.85;0.62;;;;;;;20.39;32.55;100691.97;143730;602;48006;-86
2021/05/15 01:23:00;;;;;;;3.12;0.65;;;;;;;20.45;32.25;100683.56;143725;563;46018;-85
2021/05/15 01:25:28;;;;;;;4.00;0.88;;;;;;;20.48;32.16;100671.00;143728;586;46021;-83
2021/05/15 01:27:55;;;;;;;1.92;0.80;;;;;;;20.49;32.36;100660.22;143726;689;46018;-85
2021/05/15 01:30:23;;;;;;;4.80;0.77;;;;;;;20.57;32.40;100657.84;143730;644;46018;-84
2021/05/15 01:32:50;;;;;;;1.83;0.73;;;;;;;20.60;31.94;100654.97;143725;589;48012;-84
2021/05/15 01:35:19;;;;;;;3.85;0.70;;;;;;;20.64;32.74;100663.59;143730;623;47008;-84
2021/05/15 01:37:46;;;;;;;2.95;0.80;;;;;;;20.67;32.17;100668.72;143726;659;47008;-86
2021/05/15 01:40:14;;;;;;;2.37;0.70;;;;;;;20.64;32.65;100660.94;143732;575;47006;-86
2021/05/15 01:42:42;;;;;;;3.00;0.77;;;;;;;20.70;32.26;100675.69;143727;719;47020;-82
2021/05/15 01:45:10;;;;;;;2.00;0.57;;;;;;;20.71;32.35;100661.34;143732;571;47008;-82
2021/05/15 01:47:38;;;;;;;1.60;0.60;;;;;;;20.67;32.41;100673.19;143727;618;46019;-82
2021/05/15 01:50:07;;;;;;;4.87;0.73;;;;;;;20.67;32.63;100676.72;143732;685;46022;-82
2021/05/15 01:52:35;;;;;;;4.50;0.70;;;;;;;20.69;32.48;100665.97;143724;625;46905;-82
2021/05/15 01:55:12;;;;;;;3.87;0.90;;;;;;;20.73;32.37;100670.13;143732;607;46008;-84
2021/05/15 01:57:39;;;;;;;2.75;0.70;;;;;;;20.72;32.25;100669.28;143728;641;47008;-86
2021/05/15 02:00:08;;;;;;;1.95;0.60;;;;;;;20.71;32.42;100672.91;143732;624;47006;-92
2021/05/15 02:02:36;;;;;;;3.58;0.80;;;;;;;20.65;32.23;100661.78;143731;600;47008;-87
2021/05/15 02:05:04;;;;;;;2.42;0.93;;;;;;;20.66;32.60;100683.00;143731;586;47008;-84
2021/05/15 02:07:31;;;;;;;2.60;0.82;;;;;;;20.58;32.86;100669.38;143728;656;46018;-84
2021/05/15 02:09:58;;;;;;;5.00;0.85;;;;;;;20.56;32.47;100681.97;143731;583;47007;-85
2021/05/15 02:12:25;;;;;;;4.00;1.20;;;;;;;20.49;32.92;100683.34;143729;672;46016;-85
2021/05/15 02:14:52;;;;;;;3.97;1.10;;;;;;;20.41;33.01;100670.56;143728;609;46020;-85
2021/05/15 02:17:19;;;;;;;4.10;1.25;;;;;;;20.38;33.05;100655.62;143728;570;46013;-86
2021/05/15 02:19:46;;;;;;;3.92;1.02;;;;;;;20.37;32.99;100642.41;143731;721;47008;-85
2021/05/15 02:22:13;;;;;;;2.75;0.90;;;;;;;20.36;33.49;100638.03;143729;678;47010;-85
2021/05/15 02:24:41;;;;;;;3.87;0.88;;;;;;;20.38;33.43;100628.09;143731;567;46914;-86
2021/05/15 02:27:08;;;;;;;3.33;0.90;;;;;;;20.36;32.80;100619.38;143730;590;46010;-86
2021/05/15 02:29:35;;;;;;;4.20;1.15;;;;;;;20.27;33.47;100605.72;143731;622;46022;-86
2021/05/15 02:32:02;;;;;;;3.75;1.02;;;;;;;20.27;33.69;100610.19;143731;574;46011;-85
2021/05/15 02:34:29;;;;;;;4.25;0.98;;;;;;;20.17;33.55;100609.16;143731;585;46020;-85
2021/05/15 02:36:56;;;;;;;5.82;0.98;;;;;;;20.19;33.54;100617.88;143727;586;46018;-86
2021/05/15 02:39:24;;;;;;;2.05;0.68;;;;;;;20.17;34.03;100620.66;143731;587;47006;-84
2021/05/15 02:41:51;;;;;;;2.15;0.80;;;;;;;20.15;33.68;100619.91;143729;575;46016;-86
2021/05/15 02:44:18;;;;;;;4.50;1.00;;;;;;;20.13;33.77;100621.81;143731;580;45044;-85
2021/05/15 02:46:45;;;;;;;3.20;1.00;;;;;;;20.12;33.92;100628.97;143726;637;46018;-86
2021/05/15 02:49:12;;;;;;;4.62;1.10;;;;;;;20.08;33.91;100626.63;143728;590;47008;-86
2021/05/15 02:51:39;;;;;;;4.05;1.10;;;;;;;20.03;34.20;100620.78;143731;608;47010;-88
2021/05/15 02:54:07;;;;;;;4.35;1.00;;;;;;;20.00;34.30;100620.97;143730;652;46008;-93
2021/05/15 02:56:35;;;;;;;2.22;0.80;;;;;;;19.98;34.18;100621.06;143728;564;47008;-87
2021/05/15 02:59:02;;;;;;;3.35;0.90;;;;;;;19.97;34.01;100623.84;143731;573;46006;-86
2021/05/15 03:01:29;;;;;;;4.40;1.02;;;;;;;19.95;34.89;100610.63;143729;619;46018;-86
2021/05/15 03:03:57;;;;;;;2.95;1.00;;;;;;;19.90;34.63;100605.63;143728;614;46020;-87
2021/05/15 03:06:24;;;;;;;2.33;0.70;;;;;;;19.85;34.57;100604.25;143728;656;46008;-85
2021/05/15 03:08:51;;;;;;;4.47;1.00;;;;;;;19.85;34.59;100618.41;143731;585;46010;-85
2021/05/15 03:11:18;;;;;;;4.80;0.90;;;;;;;19.83;34.44;100622.97;143732;577;46008;-83
2021/05/15 03:13:46;;;;;;;3.78;0.90;;;;;;;19.86;34.33;100628.13;143730;644;47008;-83
2021/05/15 03:16:13;;;;;;;5.37;1.00;;;;;;;19.91;34.57;100633.97;143731;581;46019;-83
2021/05/15 03:18:41;;;;;;;8.98;1.12;;;;;;;20.03;34.74;100629.59;143735;580;46008;-82
2021/05/15 03:21:08;;;;;;;5.97;1.30;;;;;;;20.03;34.67;100632.28;143728;590;47018;-82
2021/05/15 03:23:35;;;;;;;9.75;1.73;;;;;;;19.95;35.05;100642.59;143730;642;46010;-83
2021/05/15 03:26:03;;;;;;;3.35;1.30;;;;;;;19.88;35.24;100646.66;143728;605;47020;-83
2021/05/15 03:28:30;;;;;;;4.90;1.30;;;;;;;19.74;35.51;100651.06;143725;599;47008;-79
2021/05/15 03:30:57;;;;;;;9.38;1.50;;;;;;;19.71;35.94;100655.75;143727;617;47018;-77
2021/05/15 03:33:24;;;;;;;5.43;1.33;;;;;;;19.64;35.62;100660.63;143731;587;46020;-81
2021/05/15 03:35:51;;;;;;;5.80;1.40;;;;;;;19.62;35.50;100654.56;143728;570;46905;-83
2021/05/15 03:38:18;;;;;;;11.35;1.87;;;;;;;19.64;35.98;100657.13;143732;592;47006;-83
2021/05/15 03:40:46;;;;;;;5.85;1.48;;;;;;;19.65;35.90;100662.34;143729;564;47008;-83
2021/05/15 03:43:13;;;;;;;8.70;1.62;;;;;;;19.54;35.59;100639.09;143731;609;46010;-85
2021/05/15 03:45:40;;;;;;;11.60;1.85;;;;;;;19.62;36.35;100660.72;143727;570;47008;-90
2021/05/15 03:48:08;;;;;;;5.32;1.50;;;;;;;19.54;36.40;100676.38;143729;570;46020;-87
2021/05/15 03:50:35;;;;;;;6.47;1.40;;;;;;;19.58;35.76;100679.69;143728;651;46016;-86
2021/05/15 03:53:03;;;;;;;3.35;1.33;;;;;;;19.64;35.98;100675.75;143732;570;47011;-81
2021/05/15 03:55:30;;;;;;;8.60;1.40;;;;;;;19.67;36.69;100660.44;143727;570;46018;-77
2021/05/15 03:57:57;;;;;;;9.38;1.70;;;;;;;19.65;36.78;100641.03;143731;621;46008;-80
2021/05/15 04:00:25;;;;;;;7.45;1.55;;;;;;;19.64;37.11;100622.50;143725;594;48018;-79
2021/05/15 04:02:52;;;;;;;7.55;1.50;;;;;;;19.60;37.24;100627.16;143730;652;46021;-83
2021/05/15 04:05:19;;;;;;;8.77;1.27;;;;;;;19.55;37.77;100637.28;143731;586;46016;-84
2021/05/15 04:07:46;;;;;;;8.43;1.20;;;;;;;19.48;37.46;100633.31;143730;585;46020;-93
2021/05/15 04:10:13;;;;;;;5.32;1.33;;;;;;;19.53;37.48;100642.72;143731;581;46021;-89
2021/05/15 04:18:13;;;;;;;5.75;1.15;;;;;;;19.85;36.89;100689.50;143736;652;46020;-80
2021/05/15 04:20:43;;;;;;;7.20;1.45;;;;;;;19.84;37.46;100699.28;143730;621;46016;-82
2021/05/15 04:23:12;;;;;;;5.68;1.30;;;;;;;19.81;37.07;100688.00;143737;564;46021;-81
2021/05/15 04:25:40;;;;;;;7.90;1.30;;;;;;;19.76;37.50;100674.94;143736;607;46020;-81
2021/05/15 04:28:08;;;;;;;8.20;1.40;;;;;;;19.58;38.04;100645.06;143732;577;46020;-82
2021/05/15 04:30:35;;;;;;;4.62;0.95;;;;;;;19.65;38.00;100667.66;143729;624;46017;-82
2021/05/15 04:33:03;;;;;;;4.03;1.30;;;;;;;19.59;38.15;100660.09;143736;566;46020;-81
2021/05/15 04:35:33;;;;;;;6.18;1.15;;;;;;;19.57;37.75;100672.66;143736;589;46010;-82
2021/05/15 04:38:07;;;;;;;14.77;1.87;;;;;;;19.58;38.14;100675.22;143738;593;46021;-80
2021/05/15 04:40:35;;;;;;;13.07;1.33;;;;;;;19.60;38.24;100664.44;143732;621;47019;-81
2021/05/15 04:43:02;;;;;;;10.30;1.42;;;;;;;19.59;38.14;100663.59;143738;622;46008;-81
2021/05/15 04:45:31;;;;;;;5.32;1.62;;;;;;;19.61;38.06;100683.03;143730;638;46012;-82
2021/05/15 04:48:00;;;;;;;5.60;1.45;;;;;;;19.41;38.40;100659.50;143738;720;47006;-87
2021/05/15 04:50:27;;;;;;;6.57;1.50;;;;;;;19.70;38.31;100694.00;143732;576;47020;-85
2021/05/15 04:52:55;;;;;;;7.97;2.20;;;;;;;19.72;38.69;100690.25;143737;611;46020;-83
2021/05/15 04:55:22;;;;;;;13.60;2.10;;;;;;;19.72;38.96;100682.28;143736;625;46910;-80
2021/05/15 04:57:49;;;;;;;16.90;1.98;;;;;;;19.71;38.76;100695.69;143737;570;46022;-81
2021/05/15 05:00:17;;;;;;;8.32;1.90;;;;;;;19.67;38.94;100691.53;143734;665;46017;-81
2021/05/15 05:02:44;;;;;;;6.87;1.45;;;;;;;19.73;38.60;100723.94;143737;597;46020;-85
2021/05/15 05:05:12;;;;;;;6.55;1.48;;;;;;;19.78;38.48;100743.16;143737;656;46008;-89
2021/05/15 05:07:39;;;;;;;6.30;1.70;;;;;;;19.79;38.58;100755.53;143740;592;46008;-80
2021/05/15 05:10:07;;;;;;;10.40;1.70;;;;;;;19.81;39.13;100762.59;143731;586;46016;-81
2021/05/15 05:12:35;;;;;;;6.60;2.15;;;;;;;19.79;38.92;100767.97;143738;569;46020;-83
2021/05/15 05:15:02;;;;;;;8.45;2.25;;;;;;;19.84;38.75;100767.72;143739;591;46017;-84
2021/05/15 05:17:30;;;;;;;11.85;2.83;;;;;;;19.85;38.40;100775.59;143739;594;46017;-84
2021/05/15 05:19:57;;;;;;;8.18;1.90;;;;;;;19.87;38.54;100778.16;143735;587;46029;-83
2021/05/15 05:22:24;;;;;;;7.18;1.73;;;;;;;19.85;38.75;100769.44;143737;616;47008;-84
2021/05/15 05:24:51;;;;;;;10.85;3.35;;;;;;;19.92;38.89;100778.72;143736;601;46910;-81
2021/05/15 05:27:20;;;;;;;16.45;4.40;;;;;;;19.92;38.87;100787.56;143731;681;46008;-87
2021/05/15 05:29:47;;;;;;;23.12;7.53;;;;;;;19.93;39.89;100786.59;143737;567;46020;-82
2021/05/15 05:32:15;;;;;;;25.05;8.30;;;;;;;19.94;38.83;100784.78;143735;610;46023;-84
2021/05/15 05:34:45;;;;;;;26.73;11.00;;;;;;;19.92;39.23;100782.22;143730;634;46010;-90
2021/05/15 05:37:12;;;;;;;22.77;9.85;;;;;;;19.92;38.70;100786.72;143738;625;46009;-88
2021/05/15 05:39:40;;;;;;;18.52;6.68;;;;;;;19.92;38.88;100782.22;143736;598;46021;-88
2021/05/15 05:42:07;;;;;;;9.63;3.97;;;;;;;19.97;38.74;100792.59;143739;580;46008;-88
2021/05/15 05:44:35;;;;;;;12.77;3.42;;;;;;;20.01;38.66;100795.88;143737;573;47009;-90
2021/05/15 05:47:02;;;;;;;8.55;2.90;;;;;;;20.05;38.64;100800.06;143739;647;47010;-89
2021/05/15 05:49:30;;;;;;;14.50;2.20;;;;;;;20.02;38.67;100803.78;143734;631;46016;-89
2021/05/15 05:51:57;;;;;;;10.25;2.30;;;;;;;20.01;39.06;100786.09;143735;608;46020;-88
2021/05/15 05:54:24;;;;;;;10.18;2.35;;;;;;;20.11;38.88;100797.00;143735;565;46910;-89
2021/05/15 05:56:51;;;;;;;12.35;2.10;;;;;;;20.12;38.67;100788.91;143738;583;47010;-88
2021/05/15 05:59:18;;;;;;;9.68;2.12;;;;;;;20.09;38.82;100778.44;143732;609;46011;-89
2021/05/15 06:01:45;;;;;;;11.77;1.80;;;;;;;20.09;39.01;100775.78;143736;563;46010;-89
2021/05/15 06:04:12;;;;;;;7.50;1.80;;;;;;;20.07;39.36;100756.34;143737;606;46018;-82
2021/05/15 06:06:39;;;;;;;7.72;3.20;;;;;;;20.07;39.67;100737.72;143738;601;46008;-80
2021/05/15 06:09:07;;;;;;;12.88;3.50;;;;;;;20.08;39.31;100742.09;143736;570;47021;-80
2021/05/15 06:11:34;;;;;;;14.40;3.28;;;;;;;20.08;39.46;100743.88;143737;565;46010;-79
2021/05/15 06:14:01;;;;;;;10.15;2.58;;;;;;;20.09;40.10;100738.47;143739;623;45910;-79
2021/05/15 06:16:28;;;;;;;9.98;2.08;;;;;;;20.07;40.43;100747.53;143738;621;46008;-84
2021/05/15 06:18:55;;;;;;;10.02;2.03;;;;;;;20.04;41.60;100743.25;143735;569;46018;-83
2021/05/15 06:21:22;;;;;;;10.15;2.40;;;;;;;20.02;42.60;100728.31;143738;639;47008;-77
2021/05/15 06:23:49;;;;;;;6.78;1.60;;;;;;;19.94;42.63;100712.84;143728;586;46019;-76
2021/05/15 06:26:17;;;;;;;5.30;1.50;;;;;;;19.92;42.36;100707.63;143738;590;46020;-77
2021/05/15 06:28:44;;;;;;;3.55;1.10;;;;;;;19.92;42.51;100691.63;143738;617;46016;-78
2021/05/15 06:31:11;;;;;;;4.15;1.02;;;;;;;19.87;43.22;100671.59;143737;655;46021;-77
2021/05/15 06:33:38;;;;;;;4.03;0.80;;;;;;;19.84;42.63;100663.81;143739;583;46008;-78
2021/05/15 06:36:06;;;;;;;5.03;1.00;;;;;;;19.83;42.78;100665.59;143734;593;48008;-77
2021/05/15 06:38:33;;;;;;;4.62;1.10;;;;;;;19.79;42.76;100680.94;143738;632;46476;-90
2021/05/15 06:41:04;;;;;;;4.00;0.93;;;;;;;19.77;42.89;100698.81;143740;656;46008;-79
2021/05/15 06:43:32;;;;;;;4.05;1.25;;;;;;;19.81;42.78;100730.62;143740;622;45044;-77
2021/05/15 06:46:06;;;;;;;6.53;0.90;;;;;;;19.84;42.82;100759.72;143740;565;47006;-76
2021/05/15 06:48:33;;;;;;;4.60;0.98;;;;;;;19.88;42.38;100771.88;143732;575;46016;-76
2021/05/15 06:51:00;;;;;;;7.37;1.00;;;;;;;19.92;42.96;100800.03;143736;642;46914;-80
2021/05/15 06:53:28;;;;;;;3.42;0.90;;;;;;;19.95;42.77;100829.13;143738;582;46020;-79
2021/05/15 06:55:55;;;;;;;4.05;1.30;;;;;;;19.94;44.18;100843.41;143740;623;46020;-76
2021/05/15 06:58:22;;;;;;;3.62;1.15;;;;;;;19.85;45.23;100852.00;143737;571;47910;-80
2021/05/15 07:00:49;;;;;;;7.57;1.37;;;;;;;19.74;46.18;100855.34;143737;584;47008;-78
2021/05/15 07:03:16;;;;;;;8.35;1.50;;;;;;;19.60;46.93;100869.50;143739;641;46018;-81
2021/05/15 07:05:43;;;;;;;6.85;1.50;;;;;;;19.55;47.47;100861.00;143738;586;46020;-80
2021/05/15 07:08:10;;;;;;;5.35;1.50;;;;;;;19.44;48.00;100853.69;143736;586;47910;-80
2021/05/15 07:10:38;;;;;;;5.97;1.27;;;;;;;19.39;48.42;100859.28;143738;591;46020;-80
2021/05/15 07:13:05;;;;;;;7.10;1.45;;;;;;;19.28;47.72;100872.41;143731;579;46018;-82
2021/05/15 07:15:32;;;;;;;5.20;1.10;;;;;;;19.18;47.43;100881.94;143741;645;46023;-80
2021/05/15 07:18:02;;;;;;;3.53;1.23;;;;;;;19.05;49.20;100903.09;143737;622;46010;-81
2021/05/15 07:20:29;;;;;;;2.78;1.00;;;;;;;18.94;49.09;100886.00;143737;574;46020;-81
2021/05/15 07:22:56;;;;;;;6.37;1.15;;;;;;;18.83;48.62;100871.56;143740;629;46008;-82
2021/05/15 07:25:23;;;;;;;4.35;0.90;;;;;;;18.80;49.13;100893.06;143740;666;46022;-81
2021/05/15 07:27:51;;;;;;;5.55;1.17;;;;;;;18.64;50.39;100872.66;143739;569;46010;-83
2021/05/15 07:30:21;;;;;;;3.55;1.02;;;;;;;18.55;50.72;100862.59;143740;637;46009;-83
2021/05/15 07:32:48;;;;;;;3.00;1.00;;;;;;;18.42;51.88;100835.88;143739;632;46008;-82
2021/05/15 07:35:16;;;;;;;7.50;1.10;;;;;;;18.36;50.56;100814.97;143739;651;46008;-83
2021/05/15 07:37:43;;;;;;;3.80;0.90;;;;;;;18.40;50.92;100811.19;143733;612;46011;-82
2021/05/15 07:40:11;;;;;;;4.62;1.20;;;;;;;18.41;50.80;100812.87;143740;586;46008;-83
2021/05/15 07:42:38;;;;;;;3.58;1.05;;;;;;;18.51;50.53;100818.53;143738;593;46018;-82
2021/05/15 07:45:07;;;;;;;1.95;0.88;;;;;;;18.45;51.10;100819.72;143740;589;47010;-84
2021/05/15 07:47:34;;;;;;;3.62;0.95;;;;;;;18.52;50.57;100828.19;143736;594;46018;-83
2021/05/15 07:50:01;;;;;;;5.28;1.12;;;;;;;18.64;51.01;100835.44;143739;625;46008;-82
2021/05/15 07:52:30;;;;;;;5.07;1.20;;;;;;;18.66;51.76;100801.66;143737;579;46019;-87
2021/05/15 07:54:58;;;;;;;2.78;0.90;;;;;;;18.65;52.47;100789.28;143738;588;46025;-85
2021/05/15 07:57:25;;;;;;;2.55;1.00;;;;;;;18.78;52.91;100792.03;143739;582;46010;-86
2021/05/15 07:59:52;;;;;;;3.42;1.10;;;;;;;18.82;53.01;100787.41;143740;604;46008;-85
2021/05/15 08:02:21;;;;;;;2.28;0.90;;;;;;;18.83;52.81;100755.37;143733;607;46008;-84
2021/05/15 08:04:48;;;;;;;1.73;0.82;;;;;;;18.95;52.79;100772.44;143740;569;46010;-84
2021/05/15 08:07:16;;;;;;;4.00;1.02;;;;;;;19.03;52.47;100767.47;143736;604;46016;-82
2021/05/15 08:09:43;;;;;;;3.67;1.00;;;;;;;19.18;51.92;100760.34;143737;629;48008;-83
2021/05/15 08:12:11;;;;;;;2.28;0.85;;;;;;;19.36;52.38;100771.63;143738;565;46008;-87
2021/05/15 08:14:38;;;;;;;3.28;0.93;;;;;;;19.45;52.57;100779.03;143741;570;46010;-81
2021/05/15 08:17:05;;;;;;;3.30;0.90;;;;;;;19.43;52.31;100780.06;143736;594;47018;-82
2021/05/15 08:19:32;;;;;;;2.78;1.00;;;;;;;19.44;52.76;100787.94;143739;608;46008;-82
2021/05/15 08:21:59;;;;;;;4.93;1.10;;;;;;;19.41;52.79;100808.59;143740;564;45910;-85
2021/05/15 08:24:27;;;;;;;2.45;0.98;;;;;;;19.32;52.63;100826.00;143739;684;46010;-85
2021/05/15 08:26:56;;;;;;;5.05;1.02;;;;;;;19.13;53.20;100844.94;143730;606;46910;-85
2021/05/15 08:29:27;;;;;;;2.58;1.10;;;;;;;19.03;53.58;100857.94;143740;584;45021;-86
2021/05/15 08:31:55;;;;;;;3.47;1.15;;;;;;;18.92;54.08;100873.72;143739;589;46008;-82
2021/05/15 08:34:22;;;;;;;3.47;1.30;;;;;;;18.71;54.35;100889.13;143741;563;46008;-83
2021/05/15 08:36:49;;;;;;;4.37;1.23;;;;;;;18.70;55.33;100890.94;143739;569;46910;-88
2021/05/15 08:39:16;;;;;;;8.65;1.20;;;;;;;18.64;55.37;100901.06;143739;565;46010;-82
2021/05/15 08:41:44;;;;;;;5.82;1.30;;;;;;;18.59;55.67;100888.91;143741;658;46006;-83
2021/05/15 08:44:14;;;;;;;5.10;1.12;;;;;;;18.57;56.09;100874.81;143733;587;46021;-90
2021/05/15 08:46:45;;;;;;;5.12;1.20;;;;;;;18.55;56.44;100870.56;143737;597;46010;-84
2021/05/15 08:49:15;;;;;;;4.35;1.27;;;;;;;18.54;56.52;100871.50;143739;594;46020;-84
2021/05/15 08:51:43;;;;;;;6.12;1.10;;;;;;;18.41;56.64;100858.94;143734;587;46017;-84
2021/05/15 08:54:14;;;;;;;3.47;1.20;;;;;;;18.47;56.77;100881.66;143738;574;46022;-84
2021/05/15 08:56:41;;;;;;;3.70;0.93;;;;;;;18.42;56.82;100871.25;143736;585;47012;-83
2021/05/15 08:59:09;;;;;;;3.83;0.90;;;;;;;18.40;56.74;100865.19;143740;664;46008;-87
2021/05/15 09:01:37;;;;;;;2.92;1.10;;;;;;;18.36;57.09;100871.63;143738;564;46008;-83
2021/05/15 09:04:04;;;;;;;4.50;1.20;;;;;;;18.32;57.64;100867.44;143733;591;46022;-83
2021/05/15 09:06:32;;;;;;;8.88;1.50;;;;;;;18.33;57.67;100884.25;143737;603;46012;-84
2021/05/15 09:08:59;;;;;;;4.12;1.25;;;;;;;18.37;57.29;100875.13;143740;579;46008;-82
2021/05/15 09:11:27;;;;;;;10.48;1.50;;;;;;;18.38;57.25;100880.38;143738;577;46025;-85
2021/05/15 09:13:55;;;;;;;3.90;1.10;;;;;;;18.46;56.99;100887.91;143738;627;46021;-82
2021/05/15 09:16:23;;;;;;;4.97;1.20;;;;;;;18.48;56.46;100895.78;143732;625;46909;-84
2021/05/15 09:18:50;;;;;;;3.75;1.20;;;;;;;18.54;56.48;100908.75;143732;591;46020;-82
2021/05/15 09:21:25;;;;;;;4.00;1.05;;;;;;;18.54;55.95;100908.75;143738;581;46018;-83
2021/05/15 09:23:52;;;;;;;4.72;1.20;;;;;;;18.58;55.67;100916.44;143740;585;46995;-83
2021/05/15 09:26:25;;;;;;;4.53;1.10;;;;;;;18.61;55.77;100920.72;143738;619;46016;-82
2021/05/15 09:28:57;;;;;;;4.47;1.27;;;;;;;18.66;55.61;100929.28;143740;569;46021;-82
2021/05/15 09:31:45;;;;;;;4.70;1.10;;;;;;;18.65;55.47;100930.22;143740;592;46008;-83
2021/05/15 09:34:12;;;;;;;3.37;1.25;;;;;;;18.63;55.38;100939.25;143741;607;46010;-84
2021/05/15 09:36:46;;;;;;;3.80;1.40;;;;;;;18.66;55.56;100945.25;143735;686;47018;-85
2021/05/15 09:39:23;;;;;;;4.07;1.10;;;;;;;18.65;55.76;100942.69;143738;588;46013;-84
2021/05/15 09:41:58;;;;;;;5.00;1.30;;;;;;;18.64;56.08;100944.47;143737;591;46008;-83
2021/05/15 09:44:34;;;;;;;4.15;1.10;;;;;;;18.77;56.04;100947.28;143739;607;46021;-83
2021/05/15 09:47:01;;;;;;;4.93;1.15;;;;;;;18.80;56.18;100939.13;143736;566;47010;-83
2021/05/15 09:49:31;;;;;;;2.47;1.12;;;;;;;18.82;55.25;100939.00;143740;659;46008;-85
2021/05/15 09:52:05;;;;;;;4.35;1.10;;;;;;;18.85;54.78;100934.38;143737;567;46008;-84
2021/05/15 09:54:40;;;;;;;2.87;0.90;;;;;;;18.84;54.84;100935.31;143739;596;46020;-85
2021/05/15 09:57:11;;;;;;;3.12;0.70;;;;;;;18.86;54.47;100919.25;143736;687;46016;-84
2021/05/15 09:59:44;;;;;;;2.90;0.90;;;;;;;18.88;54.64;100904.13;143737;666;47008;-84
2021/05/15 10:02:18;;;;;;;2.42;1.00;;;;;;;18.88;54.42;100912.94;143738;600;46017;-83
2021/05/15 10:04:47;;;;;;;6.53;1.15;;;;;;;18.90;54.44;100927.03;143733;674;47006;-86
2021/05/15 10:07:30;;;;;;;4.10;1.02;;;;;;;18.97;54.29;100923.97;143732;619;47019;-85
2021/05/15 10:10:01;;;;;;;5.30;0.85;;;;;;;19.04;54.54;100925.31;143740;585;47008;-86
2021/05/15 10:12:30;;;;;;;2.55;0.70;;;;;;;19.10;53.74;100938.25;143731;724;46018;-90
2021/05/15 10:14:57;;;;;;;4.25;0.73;;;;;;;19.06;54.32;100940.25;143741;576;46023;-89
2021/05/15 10:17:24;;;;;;;1.33;0.60;;;;;;;18.97;54.50;100926.66;143738;596;46018;-86
2021/05/15 10:19:52;;;;;;;1.98;0.70;;;;;;;18.94;54.02;100911.72;143739;571;46020;-86
2021/05/15 10:22:19;;;;;;;2.53;0.70;;;;;;;18.90;54.17;100883.59;143738;565;46008;-86
2021/05/15 10:24:49;;;;;;;3.45;0.70;;;;;;;18.90;53.93;100863.19;143740;624;47006;-86
2021/05/15 10:27:18;;;;;;;2.55;0.80;;;;;;;18.94;55.19;100842.53;143732;573;46018;-86
2021/05/15 10:29:53;;;;;;;8.23;2.00;;;;;;;19.01;54.23;100833.22;143739;585;46008;-86
2021/05/15 10:32:33;;;;;;;1.67;0.77;;;;;;;19.18;53.97;100813.56;143734;621;46010;-87
2021/05/15 10:35:08;;;;;;;1.62;0.60;;;;;;;19.40;53.15;100818.38;143738;592;46018;-86
2021/05/15 10:37:42;;;;;;;1.90;0.70;;;;;;;19.56;53.51;100820.06;143730;699;47019;-87
2021/05/15 10:40:21;;;;;;;4.00;0.70;;;;;;;19.73;53.76;100817.16;143738;594;46010;-87
2021/05/15 10:43:02;;;;;;;2.10;0.60;;;;;;;19.81;53.82;100826.53;143739;572;46017;-87
2021/05/15 10:45:42;;;;;;;1.95;0.70;;;;;;;19.93;53.60;100823.06;143738;572;47006;-87
2021/05/15 10:48:22;;;;;;;2.08;0.80;;;;;;;20.14;53.14;100818.09;143739;595;46010;-87
2021/05/15 10:50:58;;;;;;;1.30;0.60;;;;;;;20.27;53.07;100840.34;143741;640;46009;-89
2021/05/15 10:53:36;;;;;;;1.77;0.70;;;;;;;20.27;52.88;100840.34;143738;571;46008;-89
2021/05/15 10:56:27;;;;;;;1.27;0.65;;;;;;;20.23;52.09;100817.50;143743;595;46006;-85
2021/05/15 10:59:09;;;;;;;1.55;0.70;;;;;;;20.13;52.16;100811.06;143733;598;46020;-87
2021/05/15 11:01:53;;;;;;;1.17;0.60;;;;;;;20.18;52.09;100824.94;143737;621;46020;-87
2021/05/15 11:04:30;;;;;;;2.03;0.77;;;;;;;20.21;52.17;100818.56;143742;609;45020;-86
2021/05/15 11:07:10;;;;;;;4.70;0.90;;;;;;;20.26;52.29;100821.78;143740;643;47006;-87
2021/05/15 11:09:49;;;;;;;2.30;0.80;;;;;;;20.18;52.57;100818.78;143738;581;45910;-85
2021/05/15 11:12:18;;;;;;;3.92;1.27;;;;;;;20.11;52.61;100792.50;143734;564;46011;-86
2021/05/15 11:14:50;;;;;;;1.90;0.70;;;;;;;20.02;52.48;100798.44;143731;594;46008;-85
2021/05/15 11:17:31;;;;;;;2.67;0.70;;;;;;;20.01;52.67;100770.13;143738;633;46022;-83
2021/05/15 11:20:19;;;;;;;1.95;0.90;;;;;;;19.93;52.32;100756.44;143735;600;47018;-86
2021/05/15 11:22:53;;;;;;;3.50;1.20;;;;;;;19.92;52.12;100726.25;143737;639;46008;-85
2021/05/15 11:25:27;;;;;;;4.93;1.10;;;;;;;19.93;53.11;100727.97;143731;629;46008;-91
2021/05/15 11:28:03;;;;;;;2.72;1.20;;;;;;;19.87;52.96;100706.22;143738;595;46008;-89
2021/05/15 11:30:45;;;;;;;3.25;1.20;;;;;;;19.92;52.36;100707.63;143736;596;46021;-91
2021/05/15 11:33:19;;;;;;;5.80;1.12;;;;;;;20.00;52.74;100715.09;143735;626;46008;-79
2021/05/15 11:35:52;;;;;;;2.58;0.90;;;;;;;20.03;52.77;100719.38;143736;569;46008;-76
2021/05/15 11:38:28;;;;;;;1.75;0.70;;;;;;;20.06;53.04;100720.00;143737;579;47006;-74